Time;durP1;ratioP1;P1;durP2;ratioP2;P2;SDS_P1;SDS_P2;PMS_P1;PMS_P2;Temp;Humidity;BMP_temperature;BMP_pressure;BME280_temperature;BME280_humidity;BME280_pressure;Samples;Min_cycle;Max_cycle;Signal;HPM_P1;HPM_P2
2021/01/06 00:00:54;;;;;;;5.20;2.70;;;;;;;;;;4894715;29;20577;-69
2021/01/06 00:03:21;;;;;;;4.35;2.75;;;;;;;;;;4893305;29;20124;-69
2021/01/06 00:05:58;;;;;;;4.00;2.85;;;;;;;;;;4893484;29;20053;-69
2021/01/06 00:08:25;;;;;;;4.70;2.90;;;;;;;;;;4893929;29;20041;-69
2021/01/06 00:10:52;;;;;;;5.10;3.15;;;;;;;;;;4894492;29;20044;-69
2021/01/06 00:13:18;;;;;;;4.75;3.35;;;;;;;;;;4893566;29;20036;-69
2021/01/06 00:15:45;;;;;;;4.32;2.97;;;;;;;;;;4893894;29;20057;-69
2021/01/06 00:18:12;;;;;;;5.38;3.30;;;;;;;;;;4893640;29;20543;-69
2021/01/06 00:20:38;;;;;;;4.07;2.67;;;;;;;;;;4893716;29;21054;-69
2021/01/06 00:23:04;;;;;;;4.20;2.80;;;;;;;;;;4892899;29;20048;-69
2021/01/06 00:25:32;;;;;;;7.60;3.03;;;;;;;;;;4893786;29;20441;-69
2021/01/06 00:27:59;;;;;;;3.95;3.00;;;;;;;;;;4894629;29;20068;-69
2021/01/06 00:30:33;;;;;;;4.57;3.03;;;;;;;;;;4895219;29;20047;-69
2021/01/06 00:33:01;;;;;;;5.63;3.00;;;;;;;;;;4895609;29;20053;-69
2021/01/06 00:35:27;;;;;;;4.22;2.80;;;;;;;;;;4894285;29;20051;-69
2021/01/06 00:38:00;;;;;;;4.38;3.30;;;;;;;;;;4893972;29;20112;-69
2021/01/06 00:40:28;;;;;;;4.57;2.90;;;;;;;;;;4894083;29;20108;-70
2021/01/06 00:42:58;;;;;;;4.18;3.00;;;;;;;;;;4895424;29;20056;-68
2021/01/06 00:45:25;;;;;;;4.25;3.20;;;;;;;;;;4891962;29;20127;-71
2021/01/06 00:47:52;;;;;;;5.90;3.30;;;;;;;;;;4892395;29;20049;-71
2021/01/06 00:50:19;;;;;;;5.03;2.87;;;;;;;;;;4893194;29;20058;-68
2021/01/06 00:52:46;;;;;;;3.78;2.97;;;;;;;;;;4875419;29;20049;-71
2021/01/06 00:55:13;;;;;;;4.25;3.10;;;;;;;;;;4894095;29;20386;-71
2021/01/06 00:57:41;;;;;;;4.82;2.80;;;;;;;;;;4875790;29;20048;-71
2021/01/06 01:00:08;;;;;;;;;;;;;;;;;;4893227;29;20430;-71
2021/01/06 01:02:35;;;;;;;4.95;2.75;;;;;;;;;;4892984;29;20371;-71
2021/01/06 01:05:02;;;;;;;4.65;3.28;;;;;;;;;;4890596;29;20124;-71
2021/01/06 01:07:29;;;;;;;5.20;3.00;;;;;;;;;;4893906;29;20044;-71
2021/01/06 01:09:55;;;;;;;3.97;3.05;;;;;;;;;;4891866;29;20541;-71
2021/01/06 01:12:22;;;;;;;4.30;3.08;;;;;;;;;;4891347;29;20044;-71
2021/01/06 01:14:49;;;;;;;4.43;2.78;;;;;;;;;;4892386;29;20044;-71
2021/01/06 01:17:16;;;;;;;7.15;3.10;;;;;;;;;;4893790;29;20051;-71
2021/01/06 01:19:42;;;;;;;5.05;3.53;;;;;;;;;;4895224;29;20139;-71
2021/01/06 01:22:08;;;;;;;5.05;3.22;;;;;;;;;;4894516;29;20135;-71
2021/01/06 01:24:35;;;;;;;5.00;3.20;;;;;;;;;;4893204;29;20501;-71
2021/01/06 01:27:01;;;;;;;4.57;3.35;;;;;;;;;;4894881;29;20051;-71
2021/01/06 01:29:27;;;;;;;6.28;3.40;;;;;;;;;;4894199;29;20565;-71
2021/01/06 01:31:54;;;;;;;5.20;3.72;;;;;;;;;;4894379;29;20053;-71
2021/01/06 01:34:20;;;;;;;4.95;3.17;;;;;;;;;;4894150;29;20075;-71
2021/01/06 01:36:50;;;;;;;4.75;3.47;;;;;;;;;;4894393;29;20055;-71
2021/01/06 01:39:17;;;;;;;5.32;3.38;;;;;;;;;;4891296;29;20044;-71
2021/01/06 01:41:44;;;;;;;6.70;3.67;;;;;;;;;;4894256;29;20067;-71
2021/01/06 01:44:12;;;;;;;3.47;2.30;;;;;;;;;;4893752;29;20049;-71
2021/01/06 01:46:59;;;;;;;6.97;3.30;;;;;;;;;;4893940;29;20067;-71
2021/01/06 01:49:28;;;;;;;6.32;3.60;;;;;;;;;;4892555;29;20073;-71
2021/01/06 01:52:05;;;;;;;5.00;3.38;;;;;;;;;;4894258;29;20124;-70
2021/01/06 01:54:32;;;;;;;5.25;3.40;;;;;;;;;;4894245;29;20049;-71
2021/01/06 01:57:04;;;;;;;3.95;2.92;;;;;;;;;;4893257;29;20053;-71
2021/01/06 01:59:43;;;;;;;5.85;3.88;;;;;;;;;;4893192;29;20062;-71
2021/01/06 02:02:24;;;;;;;5.28;3.47;;;;;;;;;;4893752;29;20036;-71
2021/01/06 02:04:55;;;;;;;5.30;3.55;;;;;;;;;;4891699;29;20052;-71
2021/01/06 02:07:27;;;;;;;6.00;3.63;;;;;;;;;;4890079;29;20045;-71
2021/01/06 02:10:07;;;;;;;5.95;3.72;;;;;;;;;;4894224;29;20041;-71
2021/01/06 02:12:41;;;;;;;5.55;3.63;;;;;;;;;;4897094;29;20044;-71
2021/01/06 02:15:34;;;;;;;5.93;3.28;;;;;;;;;;4896983;29;20051;-71
2021/01/06 02:18:01;;;;;;;7.07;3.20;;;;;;;;;;4893276;29;20052;-71
2021/01/06 02:20:27;;;;;;;3.92;2.72;;;;;;;;;;4896860;29;20140;-71
2021/01/06 02:22:55;;;;;;;3.92;2.92;;;;;;;;;;4895770;29;20071;-71
2021/01/06 02:25:22;;;;;;;4.53;3.13;;;;;;;;;;4895672;29;20100;-71
2021/01/06 02:27:49;;;;;;;;;;;;;;;;;;4897570;29;20059;-71
2021/01/06 02:30:16;;;;;;;6.38;3.10;;;;;;;;;;4897330;29;19938;-71
2021/01/06 02:32:42;;;;;;;4.05;2.58;;;;;;;;;;4894808;29;20092;-71
2021/01/06 02:35:09;;;;;;;4.85;2.70;;;;;;;;;;4896861;29;20079;-71
2021/01/06 02:37:36;;;;;;;4.55;2.60;;;;;;;;;;4897079;29;20060;-71
2021/01/06 02:40:07;;;;;;;3.55;2.53;;;;;;;;;;4895920;29;20113;-71
2021/01/06 02:42:33;;;;;;;4.45;2.65;;;;;;;;;;4895501;29;20045;-70
2021/01/06 02:44:59;;;;;;;4.20;2.42;;;;;;;;;;4896773;29;20529;-71
2021/01/06 02:47:26;;;;;;;3.43;2.20;;;;;;;;;;4895178;29;20087;-71
2021/01/06 02:49:53;;;;;;;5.38;1.88;;;;;;;;;;4896400;29;20045;-72
2021/01/06 02:52:22;;;;;;;4.20;2.20;;;;;;;;;;4896708;29;20049;-71
2021/01/06 02:54:49;;;;;;;2.60;2.00;;;;;;;;;;4896817;29;20045;-70
2021/01/06 02:57:16;;;;;;;2.95;1.92;;;;;;;;;;4896447;29;20047;-71
2021/01/06 02:59:48;;;;;;;2.10;1.80;;;;;;;;;;4895652;29;20048;-70
2021/01/06 03:02:16;;;;;;;2.08;1.63;;;;;;;;;;4894638;29;20156;-71
2021/01/06 03:04:45;;;;;;;2.72;1.92;;;;;;;;;;4895055;29;20401;-71
2021/01/06 03:07:12;;;;;;;3.05;2.08;;;;;;;;;;4894860;29;20040;-71
2021/01/06 03:09:40;;;;;;;2.78;1.98;;;;;;;;;;4895453;29;20063;-71
2021/01/06 03:12:12;;;;;;;3.00;2.10;;;;;;;;;;4895608;29;20092;-68
2021/01/06 03:14:39;;;;;;;1.95;1.77;;;;;;;;;;4896257;29;20509;-71
2021/01/06 03:17:05;;;;;;;;;;;;;;;;;;4896093;29;20052;-71
2021/01/06 03:19:34;;;;;;;3.25;2.00;;;;;;;;;;4894913;29;20296;-71
2021/01/06 03:22:02;;;;;;;2.30;1.98;;;;;;;;;;4894284;29;20052;-71
2021/01/06 03:24:31;;;;;;;2.03;1.40;;;;;;;;;;4896379;29;20078;-69
2021/01/06 03:26:59;;;;;;;2.42;1.92;;;;;;;;;;4896080;29;20112;-71
2021/01/06 03:29:27;;;;;;;3.53;1.90;;;;;;;;;;4894819;29;20040;-71
2021/01/06 03:31:54;;;;;;;3.08;2.15;;;;;;;;;;4894375;29;20041;-71
2021/01/06 03:34:22;;;;;;;2.65;1.92;;;;;;;;;;4895609;29;20044;-68
2021/01/06 03:36:56;;;;;;;2.83;1.85;;;;;;;;;;4895440;29;20072;-68
2021/01/06 03:39:29;;;;;;;2.40;2.20;;;;;;;;;;4895013;29;20057;-68
2021/01/06 03:41:56;;;;;;;3.78;2.13;;;;;;;;;;4893992;29;20056;-68
2021/01/06 03:44:22;;;;;;;3.05;2.10;;;;;;;;;;4895785;29;20116;-68
2021/01/06 03:46:57;;;;;;;2.70;1.90;;;;;;;;;;4894025;29;20608;-70
2021/01/06 03:49:29;;;;;;;2.97;2.10;;;;;;;;;;4895364;29;20320;-71
2021/01/06 03:52:00;;;;;;;3.03;2.20;;;;;;;;;;4894945;29;20045;-71
2021/01/06 03:54:44;;;;;;;2.80;2.20;;;;;;;;;;4895336;29;20060;-71
2021/01/06 03:57:11;;;;;;;2.53;2.00;;;;;;;;;;4893415;29;20040;-71
2021/01/06 03:59:38;;;;;;;3.38;2.30;;;;;;;;;;4893961;29;20044;-71
2021/01/06 04:02:11;;;;;;;4.18;2.17;;;;;;;;;;4893296;29;20040;-71
2021/01/06 04:04:43;;;;;;;3.67;2.33;;;;;;;;;;4893970;29;20059;-71
2021/01/06 04:07:33;;;;;;;2.90;2.22;;;;;;;;;;4893874;29;20048;-70
2021/01/06 04:10:13;;;;;;;3.97;2.10;;;;;;;;;;4888623;29;20135;-70
2021/01/06 04:12:39;;;;;;;2.63;2.05;;;;;;;;;;4894952;29;20456;-70
2021/01/06 04:15:07;;;;;;;2.38;1.95;;;;;;;;;;4894155;29;20497;-70
2021/01/06 04:17:35;;;;;;;2.17;1.80;;;;;;;;;;4894938;29;20049;-70
2021/01/06 04:20:01;;;;;;;3.03;1.90;;;;;;;;;;4893850;29;20080;-70
2021/01/06 04:22:41;;;;;;;2.55;1.58;;;;;;;;;;4892371;29;20067;-71
2021/01/06 04:25:28;;;;;;;1.58;1.48;;;;;;;;;;4894411;29;20045;-71
2021/01/06 04:27:58;;;;;;;1.75;1.63;;;;;;;;;;4893311;29;20055;-70
2021/01/06 04:30:27;;;;;;;2.53;1.80;;;;;;;;;;4891971;29;20100;-71
2021/01/06 04:32:53;;;;;;;2.28;1.77;;;;;;;;;;4893778;29;20086;-71
2021/01/06 04:35:20;;;;;;;2.63;2.00;;;;;;;;;;4892889;29;20053;-69
2021/01/06 04:37:47;;;;;;;5.18;1.90;;;;;;;;;;4893425;29;20119;-69
2021/01/06 04:40:15;;;;;;;3.70;2.03;;;;;;;;;;4894704;29;20040;-70
2021/01/06 04:42:42;;;;;;;2.03;1.60;;;;;;;;;;4894172;29;20413;-70
2021/01/06 04:45:27;;;;;;;2.83;1.60;;;;;;;;;;4893574;29;20037;-71
2021/01/06 04:48:12;;;;;;;2.42;1.75;;;;;;;;;;4894783;29;20100;-69
2021/01/06 04:50:57;;;;;;;2.67;1.80;;;;;;;;;;4894056;29;20080;-71
2021/01/06 04:53:24;;;;;;;1.83;1.50;;;;;;;;;;4894432;29;20096;-71
2021/01/06 04:56:02;;;;;;;3.17;2.05;;;;;;;;;;4894055;29;20052;-69
2021/01/06 04:58:28;;;;;;;5.53;2.05;;;;;;;;;;4894177;29;20049;-69
2021/01/06 05:00:57;;;;;;;3.45;2.15;;;;;;;;;;4894397;29;20045;-71
2021/01/06 05:03:26;;;;;;;2.17;1.77;;;;;;;;;;4893147;29;20059;-71
2021/01/06 05:06:02;;;;;;;2.40;1.70;;;;;;;;;;4891677;29;20080;-71
2021/01/06 05:08:28;;;;;;;2.38;1.90;;;;;;;;;;4894162;29;20445;-71
2021/01/06 05:10:59;;;;;;;3.95;2.00;;;;;;;;;;4893393;29;20631;-71
2021/01/06 05:13:35;;;;;;;2.53;1.85;;;;;;;;;;4894074;29;20100;-71
2021/01/06 05:16:04;;;;;;;2.25;1.83;;;;;;;;;;4893576;29;20051;-71
2021/01/06 05:18:31;;;;;;;3.15;1.95;;;;;;;;;;4892386;29;20298;-70
2021/01/06 05:20:57;;;;;;;2.15;1.90;;;;;;;;;;4893910;29;20048;-71
2021/01/06 05:23:27;;;;;;;2.15;1.80;;;;;;;;;;4892830;29;20052;-71
2021/01/06 05:25:54;;;;;;;2.33;2.00;;;;;;;;;;4893930;29;20055;-71
2021/01/06 05:28:21;;;;;;;2.50;2.13;;;;;;;;;;4894192;29;20500;-71
2021/01/06 05:30:51;;;;;;;4.80;2.03;;;;;;;;;;4893731;29;20068;-71
2021/01/06 05:33:22;;;;;;;3.60;2.10;;;;;;;;;;4892608;29;20128;-71
2021/01/06 05:35:48;;;;;;;2.88;2.03;;;;;;;;;;4894495;29;20052;-71
2021/01/06 05:38:14;;;;;;;3.17;2.03;;;;;;;;;;4892660;29;20059;-71
2021/01/06 05:40:41;;;;;;;2.55;1.90;;;;;;;;;;4894271;29;20100;-70
2021/01/06 05:43:20;;;;;;;3.65;2.00;;;;;;;;;;4893207;29;20045;-71
2021/01/06 05:45:54;;;;;;;2.72;1.67;;;;;;;;;;4893352;29;20109;-71
2021/01/06 05:48:22;;;;;;;2.28;2.08;;;;;;;;;;4896544;29;20056;-70
2021/01/06 05:50:55;;;;;;;3.00;2.08;;;;;;;;;;4896403;29;20048;-71
2021/01/06 05:53:28;;;;;;;3.33;1.92;;;;;;;;;;4895554;29;20500;-71
2021/01/06 05:55:54;;;;;;;3.03;2.03;;;;;;;;;;4896202;29;20049;-71
2021/01/06 05:58:26;;;;;;;3.55;1.98;;;;;;;;;;4895256;29;20144;-71
2021/01/06 06:01:13;;;;;;;2.20;1.92;;;;;;;;;;4897762;29;20183;-71
2021/01/06 06:03:42;;;;;;;3.50;2.10;;;;;;;;;;4896045;29;20052;-71
2021/01/06 06:06:27;;;;;;;2.45;1.85;;;;;;;;;;4875236;29;20037;-71
2021/01/06 06:09:12;;;;;;;2.85;2.00;;;;;;;;;;4896156;29;20052;-71
2021/01/06 06:11:57;;;;;;;2.47;2.00;;;;;;;;;;4895044;29;20599;-71
2021/01/06 06:14:39;;;;;;;2.38;1.80;;;;;;;;;;4896598;29;20096;-71
2021/01/06 06:17:11;;;;;;;2.10;1.70;;;;;;;;;;4896550;29;20128;-70
2021/01/06 06:19:37;;;;;;;2.05;1.63;;;;;;;;;;4895691;29;20109;-71
2021/01/06 06:22:10;;;;;;;2.42;2.10;;;;;;;;;;4879978;29;20068;-71
2021/01/06 06:24:43;;;;;;;2.22;2.00;;;;;;;;;;4896666;29;20080;-70
2021/01/06 06:27:28;;;;;;;2.45;1.48;;;;;;;;;;4896529;29;20075;-70
2021/01/06 06:30:09;;;;;;;1.70;1.60;;;;;;;;;;4897144;29;20049;-71
2021/01/06 06:32:36;;;;;;;1.60;1.50;;;;;;;;;;4895607;29;20057;-71
2021/01/06 06:35:06;;;;;;;2.15;1.50;;;;;;;;;;4895914;29;20148;-71
2021/01/06 06:37:33;;;;;;;2.70;1.70;;;;;;;;;;4896093;29;20652;-71
2021/01/06 06:39:59;;;;;;;2.20;1.70;;;;;;;;;;4895369;29;20049;-71
2021/01/06 06:42:26;;;;;;;2.45;1.77;;;;;;;;;;4896056;29;20080;-71
2021/01/06 06:44:53;;;;;;;1.58;1.35;;;;;;;;;;4894029;29;20045;-71
2021/01/06 06:47:21;;;;;;;1.70;1.52;;;;;;;;;;4894576;29;20044;-71
2021/01/06 06:49:50;;;;;;;2.13;1.73;;;;;;;;;;4897235;29;20053;-71
2021/01/06 06:52:18;;;;;;;2.33;1.48;;;;;;;;;;4895975;29;20059;-71
2021/01/06 06:55:03;;;;;;;1.70;1.55;;;;;;;;;;4895673;29;20105;-71
2021/01/06 06:57:41;;;;;;;1.85;1.48;;;;;;;;;;4894082;29;20126;-71
2021/01/06 07:00:07;;;;;;;;;;;;;;;;;;4895726;29;20664;-71
2021/01/06 07:03:03;;;;;;;2.15;1.50;;;;;;;;;;4895408;29;19923;-71
2021/01/06 07:05:31;;;;;;;1.75;1.60;;;;;;;;;;4881514;29;20051;-71
2021/01/06 07:08:04;;;;;;;6.47;2.05;;;;;;;;;;4895826;29;20459;-71
2021/01/06 07:10:32;;;;;;;1.70;1.60;;;;;;;;;;4894865;29;20144;-71
2021/01/06 07:13:03;;;;;;;1.50;1.40;;;;;;;;;;4895244;29;20040;-71
2021/01/06 07:15:32;;;;;;;1.40;1.30;;;;;;;;;;4895119;29;20454;-71
2021/01/06 07:17:58;;;;;;;1.60;1.50;;;;;;;;;;4895963;29;20044;-71
2021/01/06 07:20:37;;;;;;;1.52;1.15;;;;;;;;;;4895647;29;20041;-71
2021/01/06 07:23:23;;;;;;;2.30;1.52;;;;;;;;;;4894927;29;20061;-71
2021/01/06 07:26:02;;;;;;;1.70;1.60;;;;;;;;;;4894360;29;20053;-71
2021/01/06 07:28:28;;;;;;;2.22;1.75;;;;;;;;;;4895012;29;20056;-71
2021/01/06 07:30:54;;;;;;;1.83;1.40;;;;;;;;;;4895799;29;20049;-71
2021/01/06 07:33:26;;;;;;;2.00;1.60;;;;;;;;;;4894611;29;20533;-71
2021/01/06 07:35:52;;;;;;;1.83;1.45;;;;;;;;;;4891597;29;20118;-71
2021/01/06 07:38:19;;;;;;;1.65;1.50;;;;;;;;;;4893901;29;20438;-71
2021/01/06 07:40:46;;;;;;;1.42;1.33;;;;;;;;;;4894822;29;20112;-71
2021/01/06 07:43:17;;;;;;;2.10;1.60;;;;;;;;;;4895497;29;20626;-71
2021/01/06 07:45:46;;;;;;;2.10;1.77;;;;;;;;;;4895287;29;20072;-71
2021/01/06 07:48:15;;;;;;;1.95;1.30;;;;;;;;;;4892394;29;20096;-71
2021/01/06 07:51:04;;;;;;;2.50;1.73;;;;;;;;;;4893773;29;20804;-70
2021/01/06 07:53:46;;;;;;;2.10;1.50;;;;;;;;;;4894103;29;20434;-71
2021/01/06 07:56:26;;;;;;;1.73;1.58;;;;;;;;;;4893873;29;20048;-70
2021/01/06 07:58:54;;;;;;;1.60;1.40;;;;;;;;;;4894973;29;20048;-70
2021/01/06 08:01:20;;;;;;;2.13;1.65;;;;;;;;;;4894428;29;20055;-71
2021/01/06 08:03:47;;;;;;;2.05;1.60;;;;;;;;;;4892614;29;20045;-71
2021/01/06 08:06:15;;;;;;;2.40;1.80;;;;;;;;;;4892260;29;20093;-71
2021/01/06 08:08:48;;;;;;;1.45;1.35;;;;;;;;;;4894119;29;20033;-71
2021/01/06 08:11:16;;;;;;;2.13;1.52;;;;;;;;;;4894844;29;20044;-70
2021/01/06 08:13:51;;;;;;;2.28;1.90;;;;;;;;;;4894352;29;20056;-71
2021/01/06 08:16:27;;;;;;;1.67;1.50;;;;;;;;;;4894531;29;20072;-70
2021/01/06 08:18:53;;;;;;;2.38;1.67;;;;;;;;;;4877108;29;20524;-70
2021/01/06 08:21:24;;;;;;;3.30;1.50;;;;;;;;;;4890571;29;20076;-71
2021/01/06 08:24:05;;;;;;;2.50;1.67;;;;;;;;;;4890100;29;20068;-70
2021/01/06 08:26:33;;;;;;;2.55;1.65;;;;;;;;;;4892536;29;20052;-70
2021/01/06 08:29:17;;;;;;;2.25;1.60;;;;;;;;;;4891576;29;20045;-71
2021/01/06 08:31:44;;;;;;;2.83;1.85;;;;;;;;;;4891671;29;20096;-71
2021/01/06 08:34:37;;;;;;;1.70;1.60;;;;;;;;;;4893498;29;20048;-70
2021/01/06 08:37:10;;;;;;;1.98;1.50;;;;;;;;;;4888511;29;20045;-71
2021/01/06 08:39:56;;;;;;;1.80;1.70;;;;;;;;;;4890761;29;20068;-70
2021/01/06 08:42:57;;;;;;;2.70;1.80;;;;;;;;;;4891161;29;20538;-70
2021/01/06 08:45:33;;;;;;;3.72;1.73;;;;;;;;;;4832409;29;20060;-70
2021/01/06 08:48:23;;;;;;;2.30;1.80;;;;;;;;;;4883751;29;20517;-70
2021/01/06 08:50:49;;;;;;;2.97;1.80;;;;;;;;;;4890640;29;20478;-71
2021/01/06 08:53:16;;;;;;;1.88;1.75;;;;;;;;;;4891477;29;20508;-70
2021/01/06 08:55:53;;;;;;;3.35;1.90;;;;;;;;;;4891141;29;20108;-70
2021/01/06 08:58:20;;;;;;;2.95;1.58;;;;;;;;;;4890271;29;20462;-70
2021/01/06 09:00:49;;;;;;;2.92;1.88;;;;;;;;;;4892290;29;20048;-70
2021/01/06 09:03:18;;;;;;;2.00;1.65;;;;;;;;;;4890458;29;20128;-71
2021/01/06 09:05:55;;;;;;;1.70;1.60;;;;;;;;;;4889316;29;20060;-70
2021/01/06 09:08:27;;;;;;;1.77;1.50;;;;;;;;;;4890767;29;20067;-71
2021/01/06 09:10:56;;;;;;;2.08;1.48;;;;;;;;;;4888320;29;20064;-71
2021/01/06 09:13:29;;;;;;;2.05;1.80;;;;;;;;;;4887111;29;20501;-70
2021/01/06 09:16:00;;;;;;;1.77;1.60;;;;;;;;;;4893539;29;20083;-70
2021/01/06 09:18:48;;;;;;;2.55;1.73;;;;;;;;;;4895332;29;20048;-71
2021/01/06 09:21:25;;;;;;;2.67;1.77;;;;;;;;;;4872930;29;20120;-71
2021/01/06 09:23:53;;;;;;;2.83;1.70;;;;;;;;;;4883997;29;20089;-71
2021/01/06 09:26:23;;;;;;;2.13;1.80;;;;;;;;;;4895023;29;20303;-71
2021/01/06 09:28:58;;;;;;;1.67;1.58;;;;;;;;;;4895594;29;20048;-70
2021/01/06 09:31:24;;;;;;;4.30;1.70;;;;;;;;;;4896665;29;20049;-71
2021/01/06 09:33:51;;;;;;;3.25;1.42;;;;;;;;;;4895070;29;20052;-71
2021/01/06 09:36:18;;;;;;;1.83;1.65;;;;;;;;;;4890959;29;20073;-71
2021/01/06 09:38:45;;;;;;;3.17;1.55;;;;;;;;;;4894785;29;20041;-71
2021/01/06 09:41:20;;;;;;;2.08;1.52;;;;;;;;;;4896884;29;20396;-71
2021/01/06 09:43:49;;;;;;;1.38;1.27;;;;;;;;;;4892009;29;20052;-71
2021/01/06 09:46:28;;;;;;;1.50;1.40;;;;;;;;;;4893131;29;20060;-71
2021/01/06 09:49:00;;;;;;;2.83;1.23;;;;;;;;;;4894581;29;20080;-71
2021/01/06 09:51:27;;;;;;;2.28;1.50;;;;;;;;;;4896091;29;20052;-71
2021/01/06 09:53:55;;;;;;;1.95;1.40;;;;;;;;;;4895425;29;20053;-71
2021/01/06 09:56:23;;;;;;;3.42;1.52;;;;;;;;;;4894324;29;20063;-71
2021/01/06 09:58:50;;;;;;;2.10;1.63;;;;;;;;;;4898234;29;20051;-70
2021/01/06 10:01:42;;;;;;;2.87;1.47;;;;;;;;;;4895373;29;20056;-70
2021/01/06 10:04:20;;;;;;;1.60;1.40;;;;;;;;;;4869742;29;20400;-71
2021/01/06 10:06:58;;;;;;;2.17;1.70;;;;;;;;;;4895468;29;20043;-68
2021/01/06 10:09:33;;;;;;;3.45;1.70;;;;;;;;;;4897545;29;20040;-71
2021/01/06 10:12:09;;;;;;;2.38;1.55;;;;;;;;;;4883478;29;20108;-71
2021/01/06 10:14:45;;;;;;;2.28;1.60;;;;;;;;;;4891603;29;20124;-71
2021/01/06 10:17:25;;;;;;;3.05;1.70;;;;;;;;;;4894823;29;20127;-68
2021/01/06 10:19:58;;;;;;;2.97;1.85;;;;;;;;;;4893081;29;20505;-70
2021/01/06 10:22:45;;;;;;;1.70;1.40;;;;;;;;;;4891001;29;20120;-68
2021/01/06 10:25:30;;;;;;;2.22;1.88;;;;;;;;;;4891522;29;20061;-71
2021/01/06 10:27:56;;;;;;;3.13;1.88;;;;;;;;;;4896856;29;20672;-71
2021/01/06 10:30:24;;;;;;;2.42;1.90;;;;;;;;;;4895997;29;20127;-71
2021/01/06 10:32:52;;;;;;;2.67;1.75;;;;;;;;;;4891073;29;20044;-71
2021/01/06 10:35:26;;;;;;;4.05;1.80;;;;;;;;;;4892372;29;20084;-71
2021/01/06 10:37:53;;;;;;;1.88;1.67;;;;;;;;;;4897577;29;20059;-71
2021/01/06 10:40:24;;;;;;;3.20;2.10;;;;;;;;;;4892942;29;20044;-68
2021/01/06 10:42:51;;;;;;;3.63;1.77;;;;;;;;;;4898326;29;20406;-70
2021/01/06 10:45:26;;;;;;;2.45;2.00;;;;;;;;;;4894607;29;20067;-70
2021/01/06 10:47:53;;;;;;;2.28;1.80;;;;;;;;;;4897195;29;20061;-70
2021/01/06 10:50:23;;;;;;;2.60;1.77;;;;;;;;;;4892798;29;20482;-70
2021/01/06 10:52:58;;;;;;;2.10;1.80;;;;;;;;;;4890139;29;20045;-70
2021/01/06 10:55:45;;;;;;;2.90;1.90;;;;;;;;;;4893550;29;20049;-70
2021/01/06 10:58:18;;;;;;;3.05;1.85;;;;;;;;;;4895185;29;20041;-70
2021/01/06 11:00:54;;;;;;;2.40;1.80;;;;;;;;;;4892922;29;20045;-70
2021/01/06 11:03:26;;;;;;;3.40;1.90;;;;;;;;;;4891449;29;21900;-70
2021/01/06 11:05:52;;;;;;;2.58;1.63;;;;;;;;;;4890084;29;20404;-70
2021/01/06 11:08:37;;;;;;;2.63;2.00;;;;;;;;;;4892366;29;20132;-70
2021/01/06 11:11:06;;;;;;;3.58;2.40;;;;;;;;;;4893947;29;20063;-71
2021/01/06 11:13:44;;;;;;;2.08;1.77;;;;;;;;;;4894725;29;20104;-70
2021/01/06 11:16:17;;;;;;;2.88;1.90;;;;;;;;;;4891889;29;20124;-70
2021/01/06 11:18:46;;;;;;;2.35;2.13;;;;;;;;;;4893309;29;20041;-70
2021/01/06 11:21:20;;;;;;;2.17;1.83;;;;;;;;;;4892769;29;20100;-70
2021/01/06 11:23:47;;;;;;;3.97;2.20;;;;;;;;;;4893491;29;20052;-70
2021/01/06 11:26:32;;;;;;;2.38;2.00;;;;;;;;;;4892514;29;20539;-70
2021/01/06 11:29:10;;;;;;;2.90;2.00;;;;;;;;;;4891372;29;20484;-70
2021/01/06 11:31:38;;;;;;;3.15;2.28;;;;;;;;;;4894524;29;20113;-70
2021/01/06 11:34:07;;;;;;;2.08;1.88;;;;;;;;;;4878705;29;20104;-70
2021/01/06 11:36:45;;;;;;;2.40;1.88;;;;;;;;;;4893091;29;20450;-70
2021/01/06 11:39:16;;;;;;;2.72;1.90;;;;;;;;;;4890902;29;20509;-70
2021/01/06 11:41:42;;;;;;;3.10;2.28;;;;;;;;;;4880055;29;20063;-71
2021/01/06 11:44:19;;;;;;;3.10;2.00;;;;;;;;;;4890034;29;20520;-70
2021/01/06 11:46:51;;;;;;;3.03;1.92;;;;;;;;;;4895699;29;20056;-70
2021/01/06 11:49:29;;;;;;;2.80;2.03;;;;;;;;;;4888398;29;20144;-70
2021/01/06 11:51:56;;;;;;;;;;;;;;;;;;4893431;29;20493;-70
2021/01/06 11:54:27;;;;;;;4.32;2.05;;;;;;;;;;4891039;29;19927;-70
2021/01/06 11:57:13;;;;;;;2.53;1.85;;;;;;;;;;4893306;29;20557;-70
2021/01/06 11:59:45;;;;;;;2.65;1.90;;;;;;;;;;4894105;29;20053;-70
2021/01/06 12:02:17;;;;;;;2.90;2.25;;;;;;;;;;4889852;29;20108;-70
2021/01/06 12:05:02;;;;;;;2.97;2.20;;;;;;;;;;4888572;29;20036;-70
2021/01/06 12:07:50;;;;;;;3.08;2.20;;;;;;;;;;4892487;29;20421;-70
2021/01/06 12:10:28;;;;;;;3.17;2.38;;;;;;;;;;4892424;29;20052;-70
2021/01/06 12:12:54;;;;;;;;;;;;;;;;;;4895640;29;20409;-71
2021/01/06 12:15:26;;;;;;;2.50;2.05;;;;;;;;;;4891788;29;19958;-70
2021/01/06 12:17:53;;;;;;;4.57;2.65;;;;;;;;;;4890485;29;20052;-70
2021/01/06 12:20:34;;;;;;;3.00;2.30;;;;;;;;;;4893423;29;20072;-70
2021/01/06 12:23:18;;;;;;;3.50;2.42;;;;;;;;;;4889510;29;20057;-70
2021/01/06 12:25:54;;;;;;;3.05;2.22;;;;;;;;;;4887555;29;20135;-70
2021/01/06 12:28:40;;;;;;;3.00;2.28;;;;;;;;;;4888967;29;20123;-70
2021/01/06 12:31:18;;;;;;;4.95;2.72;;;;;;;;;;4892223;29;20458;-70
2021/01/06 12:34:03;;;;;;;3.30;2.35;;;;;;;;;;4894386;29;20096;-70
2021/01/06 12:36:30;;;;;;;4.30;2.83;;;;;;;;;;4893101;29;20105;-70
2021/01/06 12:39:17;;;;;;;2.40;2.00;;;;;;;;;;4893271;29;20068;-70
2021/01/06 12:41:54;;;;;;;3.92;2.30;;;;;;;;;;4895956;29;20132;-70
2021/01/06 12:44:22;;;;;;;3.03;2.40;;;;;;;;;;4894798;29;20072;-70
2021/01/06 12:46:48;;;;;;;3.42;2.40;;;;;;;;;;4888478;29;20056;-71
2021/01/06 12:49:14;;;;;;;2.75;2.20;;;;;;;;;;4886839;29;20586;-70
2021/01/06 12:52:01;;;;;;;2.75;2.10;;;;;;;;;;4893079;29;20052;-70
2021/01/06 12:54:35;;;;;;;2.85;2.20;;;;;;;;;;4877979;29;20052;-70
2021/01/06 12:57:04;;;;;;;2.35;1.70;;;;;;;;;;4892731;29;20052;-70
2021/01/06 12:59:42;;;;;;;2.58;2.08;;;;;;;;;;4892275;29;20514;-70
2021/01/06 13:02:27;;;;;;;2.35;2.00;;;;;;;;;;4892667;29;20059;-70
2021/01/06 13:04:54;;;;;;;2.60;2.03;;;;;;;;;;4893096;29;20063;-70
2021/01/06 13:07:26;;;;;;;2.95;2.10;;;;;;;;;;4888525;29;20056;-70
2021/01/06 13:09:59;;;;;;;2.47;2.10;;;;;;;;;;4894066;29;20100;-70
2021/01/06 13:12:30;;;;;;;3.75;2.42;;;;;;;;;;4877996;29;20055;-70
2021/01/06 13:15:06;;;;;;;2.55;2.03;;;;;;;;;;4889447;29;20445;-70
2021/01/06 13:17:34;;;;;;;2.97;2.10;;;;;;;;;;4890998;29;20044;-70
2021/01/06 13:20:00;;;;;;;3.22;2.38;;;;;;;;;;4890419;29;20373;-70
2021/01/06 13:22:44;;;;;;;2.70;2.20;;;;;;;;;;4892111;29;20617;-70
2021/01/06 13:25:19;;;;;;;2.97;2.10;;;;;;;;;;4893377;29;20060;-70
2021/01/06 13:27:53;;;;;;;3.05;2.28;;;;;;;;;;4878581;29;20044;-70
2021/01/06 13:30:20;;;;;;;2.65;2.17;;;;;;;;;;4889896;29;20060;-70
2021/01/06 13:32:46;;;;;;;2.83;2.28;;;;;;;;;;4891601;29;20037;-70
2021/01/06 13:35:19;;;;;;;3.40;2.30;;;;;;;;;;4890870;29;20493;-70
2021/01/06 13:38:03;;;;;;;3.97;2.30;;;;;;;;;;4896037;29;20120;-70
2021/01/06 13:40:31;;;;;;;3.47;2.50;;;;;;;;;;4892355;29;20550;-70
2021/01/06 13:43:00;;;;;;;4.38;2.60;;;;;;;;;;4889637;29;20225;-70
2021/01/06 13:45:27;;;;;;;2.85;2.33;;;;;;;;;;4890730;29;20037;-70
2021/01/06 13:48:06;;;;;;;2.80;2.30;;;;;;;;;;4891792;29;20081;-70
2021/01/06 13:50:36;;;;;;;4.30;2.20;;;;;;;;;;4886386;29;20105;-70
2021/01/06 13:53:31;;;;;;;3.15;2.50;;;;;;;;;;4887145;29;20045;-70
2021/01/06 13:55:57;;;;;;;3.30;2.33;;;;;;;;;;4889267;29;20056;-70
2021/01/06 13:58:41;;;;;;;3.95;2.58;;;;;;;;;;4887926;29;20036;-70
2021/01/06 14:01:11;;;;;;;2.42;2.15;;;;;;;;;;4895269;29;20056;-70
2021/01/06 14:03:43;;;;;;;3.70;1.95;;;;;;;;;;4891793;29;20044;-70
2021/01/06 14:06:16;;;;;;;3.78;2.65;;;;;;;;;;4887273;29;20564;-70
2021/01/06 14:09:01;;;;;;;3.55;2.33;;;;;;;;;;4896535;29;20100;-70
2021/01/06 14:11:46;;;;;;;3.47;2.00;;;;;;;;;;4892955;29;20501;-70
2021/01/06 14:14:31;;;;;;;4.00;2.85;;;;;;;;;;4895225;29;20045;-70
2021/01/06 14:17:02;;;;;;;3.47;2.20;;;;;;;;;;4892593;29;20061;-70
2021/01/06 14:19:38;;;;;;;2.90;2.15;;;;;;;;;;4893246;29;20041;-70
2021/01/06 14:22:17;;;;;;;4.63;2.60;;;;;;;;;;4888951;29;20075;-70
2021/01/06 14:24:50;;;;;;;4.47;2.60;;;;;;;;;;4895059;29;20091;-70
2021/01/06 14:27:22;;;;;;;3.63;2.28;;;;;;;;;;4894195;29;20104;-70
2021/01/06 14:29:48;;;;;;;3.97;2.50;;;;;;;;;;4888896;29;20044;-70
2021/01/06 14:32:14;;;;;;;5.20;2.60;;;;;;;;;;4894205;29;20461;-70
2021/01/06 14:35:05;;;;;;;4.20;2.83;;;;;;;;;;4895939;29;20924;-70
2021/01/06 14:37:34;;;;;;;4.13;2.80;;;;;;;;;;4867903;29;20068;-70
2021/01/06 14:40:13;;;;;;;4.40;2.75;;;;;;;;;;4897792;29;20104;-70
2021/01/06 14:42:41;;;;;;;4.70;2.95;;;;;;;;;;4887886;29;20057;-70
2021/01/06 14:45:29;;;;;;;4.40;2.80;;;;;;;;;;4891441;29;20040;-70
2021/01/06 14:48:01;;;;;;;4.00;2.80;;;;;;;;;;4890362;29;20112;-70
2021/01/06 14:50:34;;;;;;;5.80;2.88;;;;;;;;;;4896590;29;20132;-70
2021/01/06 14:53:16;;;;;;;3.08;2.50;;;;;;;;;;4894584;29;20048;-70
2021/01/06 14:56:06;;;;;;;4.38;2.80;;;;;;;;;;4893549;29;20425;-70
2021/01/06 14:59:00;;;;;;;4.65;2.78;;;;;;;;;;4875077;29;20045;-70
2021/01/06 15:01:30;;;;;;;5.28;3.25;;;;;;;;;;4890987;29;20036;-70
2021/01/06 15:03:56;;;;;;;4.05;2.80;;;;;;;;;;4890728;29;20052;-70
2021/01/06 15:06:31;;;;;;;4.55;2.90;;;;;;;;;;4891341;29;20037;-70
2021/01/06 15:08:58;;;;;;;4.13;2.70;;;;;;;;;;4895499;29;20120;-70
2021/01/06 15:11:28;;;;;;;4.68;3.05;;;;;;;;;;4892247;29;20548;-70
2021/01/06 15:13:59;;;;;;;4.57;3.20;;;;;;;;;;4893771;29;20104;-70
2021/01/06 15:16:25;;;;;;;6.50;2.92;;;;;;;;;;4878739;29;20147;-70